createdAt,value
2023-05-08T00:00:48.410Z,15.43
2023-05-08T00:01:40.143Z,15.45
2023-05-08T00:02:32.287Z,15.45
2023-05-08T00:03:24.118Z,15.39
2023-05-08T00:04:20.243Z,15.37
2023-05-08T00:05:11.761Z,15.36
2023-05-08T00:06:06.695Z,15.36
2023-05-08T00:06:58.204Z,15.38
2023-05-08T00:07:51.151Z,15.39
2023-05-08T00:08:42.679Z,15.44
2023-05-08T00:09:34.134Z,15.46
2023-05-08T00:10:25.836Z,15.46
2023-05-08T00:11:17.273Z,15.42
2023-05-08T00:12:08.820Z,15.39
2023-05-08T00:13:00.273Z,15.42
2023-05-08T00:13:51.880Z,15.39
2023-05-08T00:14:43.292Z,15.34
2023-05-08T00:15:37.282Z,15.32
2023-05-08T00:16:28.866Z,15.33
2023-05-08T00:17:20.341Z,15.31
2023-05-08T00:18:11.944Z,15.31
2023-05-08T00:19:03.947Z,15.29
2023-05-08T00:19:55.612Z,15.30
2023-05-08T00:20:47.036Z,15.29
2023-05-08T00:21:38.874Z,15.26
2023-05-08T00:22:30.327Z,15.23
2023-05-08T00:23:23.919Z,15.27
2023-05-08T00:24:16.821Z,15.28
2023-05-08T00:25:09.115Z,15.31
2023-05-08T00:26:00.802Z,15.33
2023-05-08T00:26:53.505Z,15.32
2023-05-08T00:27:45.587Z,15.32
2023-05-08T00:28:37.568Z,15.34
2023-05-08T00:29:29.026Z,15.34
2023-05-08T00:30:21.214Z,15.30
2023-05-08T00:31:14.916Z,15.29
2023-05-08T00:32:09.924Z,15.26
2023-05-08T00:33:01.505Z,15.21
2023-05-08T00:33:52.944Z,15.20
2023-05-08T00:34:46.705Z,15.18
2023-05-08T00:35:38.676Z,15.18
2023-05-08T00:36:30.353Z,15.19
2023-05-08T00:37:22.359Z,15.17
2023-05-08T00:38:13.800Z,15.14
2023-05-08T00:39:05.470Z,15.15
2023-05-08T00:39:58.129Z,15.17
2023-05-08T00:40:49.584Z,15.17
2023-05-08T00:41:41.031Z,15.16
2023-05-08T00:42:34.414Z,15.18
2023-05-08T00:43:28.123Z,15.21
2023-05-08T00:44:21.815Z,15.22
2023-05-08T00:45:13.472Z,15.23
2023-05-08T00:46:05.782Z,15.27
2023-05-08T00:46:57.471Z,15.30
2023-05-08T00:47:51.273Z,15.31
2023-05-08T00:48:44.688Z,15.34
2023-05-08T00:49:36.650Z,15.34
2023-05-08T00:50:28.829Z,15.34
2023-05-08T00:51:22.001Z,15.33
2023-05-08T00:52:13.703Z,15.34
2023-05-08T00:53:06.266Z,15.32
2023-05-08T00:53:59.953Z,15.31
2023-05-08T00:54:52.054Z,15.29
2023-05-08T00:55:45.876Z,15.23
2023-05-08T00:56:38.535Z,15.18
2023-05-08T00:57:36.217Z,15.19
2023-05-08T00:58:28.934Z,15.15
2023-05-08T00:59:22.676Z,15.14
2023-05-08T01:00:18.564Z,15.13
2023-05-08T01:01:11.237Z,15.10
2023-05-08T01:02:03.677Z,15.14
2023-05-08T01:02:55.517Z,15.12
2023-05-08T01:03:47.945Z,15.10
2023-05-08T01:04:41.984Z,15.10
2023-05-08T01:05:33.744Z,15.07
2023-05-08T01:06:25.351Z,15.08
2023-05-08T01:07:18.066Z,15.05
2023-05-08T01:08:09.791Z,15.02
2023-05-08T01:09:01.231Z,15.00
2023-05-08T01:09:55.436Z,14.99
2023-05-08T01:11:06.567Z,15.00
2023-05-08T01:12:21.212Z,15.06
2023-05-08T01:13:30.814Z,15.06
2023-05-08T01:14:41.769Z,15.04
2023-05-08T01:15:43.705Z,15.01
2023-05-08T01:16:58.832Z,15.00
2023-05-08T01:18:23.098Z,15.00
2023-05-08T01:19:31.462Z,15.00
2023-05-08T01:20:43.048Z,15.00
2023-05-08T01:21:45.931Z,14.99
2023-05-08T01:23:02.398Z,15.00
2023-05-08T01:23:57.320Z,14.99
2023-05-08T01:25:10.309Z,14.95
2023-05-08T01:26:25.191Z,14.99
2023-05-08T01:28:01.948Z,14.99
2023-05-08T01:29:14.639Z,14.95
2023-05-08T01:30:29.981Z,14.99
2023-05-08T01:31:36.394Z,15.01
2023-05-08T01:32:39.030Z,14.99
2023-05-08T01:33:59.773Z,15.00
2023-05-08T01:35:06.431Z,14.94
2023-05-08T01:36:10.580Z,14.98
2023-05-08T01:37:13.680Z,14.95
2023-05-08T01:38:32.461Z,14.94
2023-05-08T01:39:39.216Z,14.97
2023-05-08T01:40:51.498Z,14.96
2023-05-08T01:42:03.138Z,14.97
2023-05-08T01:43:10.864Z,14.94
2023-05-08T01:44:16.918Z,15.01
2023-05-08T01:45:35.899Z,14.94
2023-05-08T01:46:32.711Z,14.92
2023-05-08T01:47:29.658Z,14.95
2023-05-08T01:48:47.048Z,15.00
2023-05-08T01:49:49.208Z,15.01
2023-05-08T01:50:49.569Z,14.99
2023-05-08T01:51:50.344Z,14.97
2023-05-08T01:52:48.704Z,15.01
2023-05-08T01:53:49.517Z,15.00
2023-05-08T01:54:55.680Z,14.93
2023-05-08T01:55:53.370Z,14.92
2023-05-08T01:56:50.353Z,14.90
2023-05-08T01:57:52.029Z,14.94
2023-05-08T01:58:46.698Z,14.97
2023-05-08T01:59:43.151Z,14.95
2023-05-08T02:00:41.705Z,14.90
2023-05-08T02:01:34.896Z,14.88
2023-05-08T02:02:30.081Z,14.86
2023-05-08T02:03:24.832Z,14.84
2023-05-08T02:04:18.209Z,14.83
2023-05-08T02:05:12.497Z,14.78
2023-05-08T02:06:08.121Z,14.80
2023-05-08T02:07:01.656Z,14.79
2023-05-08T02:07:55.960Z,14.79
2023-05-08T02:08:53.815Z,14.78
2023-05-08T02:09:46.897Z,14.80
2023-05-08T02:10:41.565Z,14.83
2023-05-08T02:11:36.644Z,14.82
2023-05-08T02:12:32.149Z,14.80
2023-05-08T02:13:27.525Z,14.79
2023-05-08T02:14:22.240Z,14.75
2023-05-08T02:15:17.667Z,14.76
2023-05-08T02:16:12.420Z,14.80
2023-05-08T02:17:07.244Z,14.78
2023-05-08T02:18:00.215Z,14.76
2023-05-08T02:18:55.408Z,14.79
2023-05-08T02:19:49.865Z,14.83
2023-05-08T02:20:42.065Z,14.79
2023-05-08T02:21:35.822Z,14.78
2023-05-08T02:22:32.219Z,14.78
2023-05-08T02:23:29.045Z,14.83
2023-05-08T02:24:22.443Z,14.78
2023-05-08T02:25:16.757Z,14.77
2023-05-08T02:26:12.607Z,14.77
2023-05-08T02:27:06.245Z,14.78
2023-05-08T02:27:59.876Z,14.76
2023-05-08T02:28:55.552Z,14.75
2023-05-08T02:29:47.514Z,14.74
2023-05-08T02:30:40.564Z,14.72
2023-05-08T02:31:36.530Z,14.70
2023-05-08T02:32:30.867Z,14.73
2023-05-08T02:33:23.928Z,14.75
2023-05-08T02:34:18.037Z,14.80
2023-05-08T02:35:15.098Z,14.78
2023-05-08T02:36:07.902Z,14.76
2023-05-08T02:37:04.357Z,14.75
2023-05-08T02:37:58.523Z,14.75
2023-05-08T02:38:56.147Z,14.71
2023-05-08T02:39:49.386Z,14.71
2023-05-08T02:40:47.409Z,14.73
2023-05-08T02:41:41.990Z,14.73
2023-05-08T02:42:33.887Z,14.72
2023-05-08T02:43:25.718Z,14.70
2023-05-08T02:44:17.409Z,14.70
2023-05-08T02:45:10.167Z,14.71
2023-05-08T02:46:14.234Z,14.70
2023-05-08T02:47:22.016Z,14.70
2023-05-08T02:48:33.385Z,14.67
2023-05-08T02:49:37.883Z,14.70
2023-05-08T02:50:45.680Z,14.72
2023-05-08T02:51:57.498Z,14.68
2023-05-08T02:53:03.743Z,14.71
2023-05-08T02:54:10.660Z,14.73
2023-05-08T02:55:36.282Z,14.73
2023-05-08T02:56:37.557Z,14.71
2023-05-08T02:57:48.032Z,14.67
2023-05-08T02:58:55.369Z,14.65
2023-05-08T02:59:57.832Z,14.66
2023-05-08T03:01:00.602Z,14.65
2023-05-08T03:02:02.342Z,14.63
2023-05-08T03:03:00.079Z,14.64
2023-05-08T03:04:06.296Z,14.70
2023-05-08T03:05:07.960Z,14.63
2023-05-08T03:06:03.801Z,14.63
2023-05-08T03:06:58.223Z,14.65
2023-05-08T03:07:55.657Z,14.63
2023-05-08T03:08:50.331Z,14.64
2023-05-08T03:09:46.876Z,14.64
2023-05-08T03:10:45.099Z,14.61
2023-05-08T03:11:42.462Z,14.55
2023-05-08T03:12:42.933Z,14.58
2023-05-08T03:13:38.857Z,14.54
2023-05-08T03:14:39.180Z,14.56
2023-05-08T03:15:40.557Z,14.53
2023-05-08T03:16:38.213Z,14.54
2023-05-08T03:17:34.361Z,14.48
2023-05-08T03:18:34.640Z,14.50
2023-05-08T03:19:34.215Z,14.45
2023-05-08T03:20:41.749Z,14.50
2023-05-08T03:21:37.304Z,14.49
2023-05-08T03:22:32.546Z,14.50
2023-05-08T03:23:27.677Z,14.51
2023-05-08T03:24:23.553Z,14.52
2023-05-08T03:25:20.824Z,14.52
2023-05-08T03:26:19.431Z,14.53
2023-05-08T03:27:13.659Z,14.51
2023-05-08T03:28:08.526Z,14.50
2023-05-08T03:29:00.434Z,14.50
2023-05-08T03:29:57.979Z,14.51
2023-05-08T03:30:51.877Z,14.51
2023-05-08T03:31:45.010Z,14.53
2023-05-08T03:32:38.325Z,14.52
2023-05-08T03:33:32.280Z,14.51
2023-05-08T03:34:28.510Z,14.47
2023-05-08T03:35:20.287Z,14.43
2023-05-08T03:36:13.523Z,14.41
2023-05-08T03:37:06.081Z,14.38
2023-05-08T03:37:58.895Z,14.36
2023-05-08T03:38:50.585Z,14.34
2023-05-08T03:39:42.279Z,14.34
2023-05-08T03:40:38.941Z,14.35
2023-05-08T03:41:31.406Z,14.36
2023-05-08T03:42:27.544Z,14.36
2023-05-08T03:43:21.573Z,14.39
2023-05-08T03:44:14.437Z,14.37
2023-05-08T03:45:07.147Z,14.40
2023-05-08T03:46:00.786Z,14.37
2023-05-08T03:46:58.342Z,14.38
2023-05-08T03:47:53.610Z,14.37
2023-05-08T03:48:48.531Z,14.40
2023-05-08T03:49:41.390Z,14.35
2023-05-08T03:50:36.992Z,14.29
2023-05-08T03:51:31.430Z,14.33
2023-05-08T03:52:23.866Z,14.32
2023-05-08T03:53:15.624Z,14.28
2023-05-08T03:54:07.444Z,14.28
2023-05-08T03:54:59.475Z,14.30
2023-05-08T03:55:51.445Z,14.29
2023-05-08T03:56:45.927Z,14.28
2023-05-08T03:57:50.153Z,14.27
2023-05-08T03:58:50.975Z,14.30
2023-05-08T03:59:46.686Z,14.32
2023-05-08T04:00:58.723Z,14.31
2023-05-08T04:01:59.904Z,14.27
2023-05-08T04:03:14.099Z,14.22
2023-05-08T04:04:14.589Z,14.23
2023-05-08T04:05:34.575Z,14.23
2023-05-08T04:06:49.479Z,14.19
2023-05-08T04:08:30.033Z,14.19
2023-05-08T04:09:37.277Z,14.26
2023-05-08T04:10:38.064Z,14.24
2023-05-08T04:11:41.297Z,14.25
2023-05-08T04:13:08.233Z,14.22
2023-05-08T04:14:08.551Z,14.21
2023-05-08T04:15:10.048Z,14.21
2023-05-08T04:16:22.808Z,14.20
2023-05-08T04:17:22.474Z,14.16
2023-05-08T04:18:21.134Z,14.15
2023-05-08T04:19:21.066Z,14.20
2023-05-08T04:20:19.324Z,14.17
2023-05-08T04:21:15.526Z,14.15
2023-05-08T04:22:10.233Z,14.20
2023-05-08T04:23:05.906Z,14.18
2023-05-08T04:23:58.789Z,14.16
2023-05-08T04:24:57.760Z,14.09
2023-05-08T04:25:52.084Z,14.11
2023-05-08T04:26:45.876Z,14.16
2023-05-08T04:27:38.914Z,14.15
2023-05-08T04:28:33.876Z,14.16
2023-05-08T04:29:25.700Z,14.13
2023-05-08T04:30:17.424Z,14.13
2023-05-08T04:31:10.726Z,14.13
2023-05-08T04:32:06.372Z,14.11
2023-05-08T04:32:59.934Z,14.13
2023-05-08T04:33:54.397Z,14.17
2023-05-08T04:34:46.721Z,14.17
2023-05-08T04:35:38.583Z,14.15
2023-05-08T04:36:34.072Z,14.12
2023-05-08T04:37:31.721Z,14.11
2023-05-08T04:38:24.988Z,14.08
2023-05-08T04:39:19.854Z,14.09
2023-05-08T04:40:16.400Z,14.11
2023-05-08T04:41:08.289Z,14.06
2023-05-08T04:42:04.596Z,14.08
2023-05-08T04:42:58.638Z,14.13
2023-05-08T04:43:50.541Z,14.14
2023-05-08T04:44:46.422Z,14.16
2023-05-08T04:45:40.248Z,14.16
2023-05-08T04:46:34.141Z,14.17
2023-05-08T04:47:25.820Z,14.16
2023-05-08T04:48:19.088Z,14.10
2023-05-08T04:49:10.854Z,14.11
2023-05-08T04:50:03.176Z,14.13
2023-05-08T04:50:56.353Z,14.16
2023-05-08T04:51:50.334Z,14.19
2023-05-08T04:52:42.934Z,14.16
2023-05-08T04:53:36.256Z,14.15
2023-05-08T04:54:28.292Z,14.12
2023-05-08T04:55:19.759Z,14.18
2023-05-08T04:56:12.101Z,14.23
2023-05-08T04:57:04.306Z,14.27
2023-05-08T04:57:55.862Z,14.23
2023-05-08T04:58:47.494Z,14.26
2023-05-08T04:59:39.305Z,14.28
2023-05-08T05:00:30.878Z,14.28
2023-05-08T05:01:22.466Z,14.30
2023-05-08T05:02:14.011Z,14.29
2023-05-08T05:03:05.795Z,14.31
2023-05-08T05:03:57.511Z,14.29
2023-05-08T05:04:52.801Z,14.34
2023-05-08T05:05:44.446Z,14.37
2023-05-08T05:06:35.898Z,14.43
2023-05-08T05:07:27.290Z,14.49
2023-05-08T05:08:18.940Z,14.45
2023-05-08T05:09:11.756Z,14.43
2023-05-08T05:10:04.181Z,14.42
2023-05-08T05:10:57.459Z,14.44
2023-05-08T05:11:48.886Z,14.45
2023-05-08T05:12:41.071Z,14.48
2023-05-08T05:13:32.531Z,14.47
2023-05-08T05:14:26.716Z,14.52
2023-05-08T05:15:18.399Z,14.53
2023-05-08T05:16:09.872Z,14.54
2023-05-08T05:17:01.918Z,14.56
2023-05-08T05:17:55.062Z,14.55
2023-05-08T05:18:47.017Z,14.57
2023-05-08T05:19:40.886Z,14.62
2023-05-08T05:20:32.968Z,14.60
2023-05-08T05:21:27.154Z,14.61
2023-05-08T05:22:19.973Z,14.57
2023-05-08T05:23:13.344Z,14.62
2023-05-08T05:24:06.322Z,14.65
2023-05-08T05:24:57.694Z,14.72
2023-05-08T05:25:50.044Z,14.74
2023-05-08T05:26:43.655Z,14.77
2023-05-08T05:27:36.778Z,14.77
2023-05-08T05:28:30.004Z,14.74
2023-05-08T05:29:22.337Z,14.73
2023-05-08T05:30:14.460Z,14.77
2023-05-08T05:31:06.156Z,14.79
2023-05-08T05:31:57.893Z,14.81
2023-05-08T05:32:49.583Z,14.83
2023-05-08T05:33:42.401Z,14.79
2023-05-08T05:34:34.265Z,14.87
2023-05-08T05:35:26.214Z,14.86
2023-05-08T05:36:19.412Z,14.85
2023-05-08T05:37:11.063Z,14.82
2023-05-08T05:38:02.934Z,14.79
2023-05-08T05:38:54.641Z,14.87
2023-05-08T05:39:46.211Z,14.87
2023-05-08T05:40:37.676Z,14.89
2023-05-08T05:41:29.247Z,14.87
2023-05-08T05:42:21.549Z,14.85
2023-05-08T05:43:13.287Z,14.87
2023-05-08T05:44:06.884Z,14.93
2023-05-08T05:44:59.069Z,14.97
2023-05-08T05:45:50.602Z,15.03
2023-05-08T05:46:45.679Z,15.03
2023-05-08T05:47:37.346Z,15.03
2023-05-08T05:48:30.310Z,15.09
2023-05-08T05:49:24.778Z,15.09
2023-05-08T05:50:21.637Z,15.08
2023-05-08T05:51:13.917Z,15.09
2023-05-08T05:52:05.511Z,15.09
2023-05-08T05:52:57.369Z,15.18
2023-05-08T05:53:48.897Z,15.15
2023-05-08T05:54:41.591Z,15.16
2023-05-08T05:55:34.236Z,15.16
2023-05-08T05:56:25.747Z,15.17
2023-05-08T05:57:17.736Z,15.19
2023-05-08T05:58:09.210Z,15.21
2023-05-08T05:59:00.778Z,15.21
2023-05-08T05:59:54.704Z,15.20
2023-05-08T06:00:47.660Z,15.24
2023-05-08T06:01:39.285Z,15.27
2023-05-08T06:02:33.751Z,15.23
2023-05-08T06:03:25.451Z,15.28
2023-05-08T06:04:17.922Z,15.35
2023-05-08T06:05:10.505Z,15.38
2023-05-08T06:06:03.787Z,15.33
2023-05-08T06:06:55.475Z,15.38
2023-05-08T06:07:46.919Z,15.38
2023-05-08T06:08:40.050Z,15.37
2023-05-08T06:09:31.602Z,15.31
2023-05-08T06:10:23.214Z,15.39
2023-05-08T06:11:14.928Z,15.35
2023-05-08T06:12:06.541Z,15.38
2023-05-08T06:12:58.166Z,15.32
2023-05-08T06:13:50.783Z,15.37
2023-05-08T06:14:42.949Z,15.31
2023-05-08T06:15:34.782Z,15.42
2023-05-08T06:16:26.567Z,15.35
2023-05-08T06:17:19.041Z,15.37
2023-05-08T06:18:10.614Z,15.39
2023-05-08T06:19:02.091Z,15.37
2023-05-08T06:19:56.387Z,15.43
2023-05-08T06:20:48.127Z,15.47
2023-05-08T06:21:40.115Z,15.52
2023-05-08T06:22:31.612Z,15.47
2023-05-08T06:23:23.304Z,15.50
2023-05-08T06:24:14.888Z,15.54
2023-05-08T06:25:07.327Z,15.56
2023-05-08T06:25:59.010Z,15.46
2023-05-08T06:26:50.516Z,15.45
2023-05-08T06:27:44.877Z,15.52
2023-05-08T06:28:36.346Z,15.53
2023-05-08T06:29:27.845Z,15.54
2023-05-08T06:30:19.473Z,15.56
2023-05-08T06:31:11.052Z,15.60
2023-05-08T06:32:04.822Z,15.51
2023-05-08T06:32:56.786Z,15.35
2023-05-08T06:33:48.535Z,15.37
2023-05-08T06:34:40.266Z,15.40
2023-05-08T06:35:31.788Z,15.49
2023-05-08T06:36:23.442Z,15.47
2023-05-08T06:37:15.493Z,15.44
2023-05-08T06:38:06.925Z,15.56
2023-05-08T06:38:58.519Z,15.48
2023-05-08T06:39:57.224Z,15.39
2023-05-08T06:40:55.925Z,15.52
2023-05-08T06:41:50.556Z,15.53
2023-05-08T06:42:51.929Z,15.63
2023-05-08T06:43:43.536Z,15.68
2023-05-08T06:44:35.554Z,15.70
2023-05-08T06:45:29.288Z,15.71
2023-05-08T06:46:21.881Z,15.76
2023-05-08T06:47:13.406Z,15.74
2023-05-08T06:48:05.359Z,15.74
2023-05-08T06:48:56.948Z,15.79
2023-05-08T06:49:48.586Z,15.79
2023-05-08T06:50:43.280Z,15.86
2023-05-08T06:51:35.700Z,15.90
2023-05-08T06:52:27.173Z,15.97
2023-05-08T06:53:18.977Z,16.03
2023-05-08T06:54:10.614Z,15.97
2023-05-08T06:55:02.094Z,15.99
2023-05-08T06:55:53.561Z,16.06
2023-05-08T06:56:48.591Z,16.02
2023-05-08T06:57:40.220Z,16.09
2023-05-08T06:58:32.147Z,16.04
2023-05-08T06:59:24.337Z,16.07
2023-05-08T07:00:17.398Z,16.15
2023-05-08T07:01:08.942Z,16.15
2023-05-08T07:02:00.702Z,16.25
2023-05-08T07:02:52.268Z,16.15
2023-05-08T07:03:43.809Z,16.19
2023-05-08T07:04:37.454Z,16.19
2023-05-08T07:05:29.297Z,16.27
2023-05-08T07:06:20.773Z,16.30
2023-05-08T07:07:13.988Z,16.30
2023-05-08T07:08:05.496Z,16.29
2023-05-08T07:08:57.446Z,16.29
2023-05-08T07:09:49.034Z,16.30
2023-05-08T07:10:40.755Z,16.28
2023-05-08T07:11:32.219Z,16.32
2023-05-08T07:12:25.880Z,16.24
2023-05-08T07:13:21.494Z,16.14
2023-05-08T07:14:15.066Z,16.13
2023-05-08T07:15:17.898Z,16.01
2023-05-08T07:16:16.800Z,15.99
2023-05-08T07:17:08.318Z,15.94
2023-05-08T07:18:00.414Z,16.01
2023-05-08T07:18:52.075Z,15.99
2023-05-08T07:19:50.774Z,15.99
2023-05-08T07:20:42.417Z,16.00
2023-05-08T07:21:34.492Z,16.00
2023-05-08T07:22:26.002Z,16.11
2023-05-08T07:23:17.861Z,16.11
2023-05-08T07:24:09.336Z,16.18
2023-05-08T07:25:00.892Z,16.24
2023-05-08T07:25:53.189Z,16.24
2023-05-08T07:26:44.933Z,16.28
2023-05-08T07:27:36.936Z,16.34
2023-05-08T07:28:28.901Z,16.42
2023-05-08T07:29:20.796Z,16.48
2023-05-08T07:30:12.476Z,16.51
2023-05-08T07:31:09.245Z,16.55
2023-05-08T07:32:00.927Z,16.69
2023-05-08T07:32:52.454Z,16.79
2023-05-08T07:33:43.943Z,16.89
2023-05-08T07:34:35.827Z,16.95
2023-05-08T07:35:30.315Z,17.04
2023-05-08T07:36:22.933Z,17.08
2023-05-08T07:37:16.857Z,17.21
2023-05-08T07:38:09.015Z,17.27
2023-05-08T07:39:04.552Z,17.30
2023-05-08T07:39:56.053Z,17.29
2023-05-08T07:40:51.657Z,17.37
2023-05-08T07:41:43.291Z,17.41
2023-05-08T07:42:45.095Z,17.43
2023-05-08T07:43:37.225Z,17.49
2023-05-08T07:44:37.257Z,17.59
2023-05-08T07:45:35.915Z,17.43
2023-05-08T07:46:27.415Z,17.55
2023-05-08T07:47:18.839Z,17.53
2023-05-08T07:48:10.391Z,17.52
2023-05-08T07:49:01.983Z,17.38
2023-05-08T07:49:53.416Z,17.48
2023-05-08T07:50:48.835Z,17.64
2023-05-08T07:51:40.469Z,17.57
2023-05-08T07:52:32.040Z,17.59
2023-05-08T07:53:25.419Z,17.41
2023-05-08T07:54:16.812Z,17.39
2023-05-08T07:55:08.738Z,17.42
2023-05-08T07:56:00.190Z,17.45
2023-05-08T07:56:51.774Z,17.52
2023-05-08T07:57:44.169Z,17.60
2023-05-08T07:58:35.566Z,17.65
2023-05-08T07:59:27.172Z,17.74
2023-05-08T08:00:19.036Z,17.71
2023-05-08T08:01:10.576Z,17.69
2023-05-08T08:02:02.213Z,17.80
2023-05-08T08:02:53.874Z,17.96
2023-05-08T08:03:48.875Z,17.83
2023-05-08T08:04:40.745Z,17.83
2023-05-08T08:05:32.327Z,17.93
2023-05-08T08:06:24.038Z,17.95
2023-05-08T08:07:15.476Z,17.93
2023-05-08T08:08:06.881Z,18.02
2023-05-08T08:08:58.254Z,18.07
2023-05-08T08:09:49.747Z,18.01
2023-05-08T08:10:41.676Z,18.06
2023-05-08T08:11:35.642Z,18.16
2023-05-08T08:12:27.862Z,18.00
2023-05-08T08:13:19.353Z,17.95
2023-05-08T08:14:10.767Z,17.91
2023-05-08T08:15:05.594Z,18.12
2023-05-08T08:15:57.412Z,18.26
2023-05-08T08:16:48.831Z,18.36
2023-05-08T08:17:40.243Z,18.35
2023-05-08T08:18:35.955Z,18.35
2023-05-08T08:19:27.402Z,18.38
2023-05-08T08:20:19.069Z,18.59
2023-05-08T08:21:13.692Z,18.64
2023-05-08T08:22:06.241Z,18.68
2023-05-08T08:23:00.837Z,18.69
2023-05-08T08:23:52.362Z,18.61
2023-05-08T08:24:43.980Z,18.74
2023-05-08T08:25:35.557Z,18.82
2023-05-08T08:26:27.036Z,18.91
2023-05-08T08:27:18.492Z,19.06
2023-05-08T08:28:09.884Z,19.19
2023-05-08T08:29:03.270Z,19.28
2023-05-08T08:30:08.263Z,19.33
2023-05-08T08:31:06.269Z,19.36
2023-05-08T08:32:00.983Z,19.51
2023-05-08T08:32:52.719Z,19.16
2023-05-08T08:33:47.935Z,19.27
2023-05-08T08:34:39.394Z,19.41
2023-05-08T08:35:34.681Z,19.29
2023-05-08T08:36:28.630Z,19.09
2023-05-08T08:37:21.841Z,19.06
2023-05-08T08:38:16.819Z,19.00
2023-05-08T08:39:10.959Z,19.20
2023-05-08T08:40:03.777Z,19.21
2023-05-08T08:40:55.462Z,19.07
2023-05-08T08:41:47.175Z,18.95
2023-05-08T08:42:38.824Z,19.07
2023-05-08T08:43:30.428Z,19.17
2023-05-08T08:44:21.964Z,19.27
2023-05-08T08:45:13.834Z,19.29
2023-05-08T08:46:14.589Z,19.35
2023-05-08T08:47:16.241Z,19.42
2023-05-08T08:48:12.582Z,19.53
2023-05-08T08:49:08.413Z,19.64
2023-05-08T08:50:03.222Z,19.64
2023-05-08T08:51:02.336Z,19.77
2023-05-08T08:51:59.346Z,19.72
2023-05-08T08:53:15.702Z,19.86
2023-05-08T08:54:13.091Z,19.98
2023-05-08T08:55:09.715Z,19.75
2023-05-08T08:56:03.948Z,19.79
2023-05-08T08:57:00.566Z,19.80
2023-05-08T08:58:23.121Z,19.93
2023-05-08T08:59:22.980Z,20.00
2023-05-08T09:00:22.646Z,20.03
2023-05-08T09:01:25.903Z,20.10
2023-05-08T09:02:20.706Z,20.13
2023-05-08T09:03:14.001Z,20.22
2023-05-08T09:04:07.738Z,20.13
2023-05-08T09:04:59.798Z,20.12
2023-05-08T09:05:51.776Z,19.97
2023-05-08T09:06:52.303Z,20.10
2023-05-08T09:07:44.211Z,20.13
2023-05-08T09:08:37.071Z,20.04
2023-05-08T09:09:29.237Z,19.64
2023-05-08T09:10:23.077Z,19.65
2023-05-08T09:11:14.596Z,19.52
2023-05-08T09:12:08.763Z,19.61
2023-05-08T09:13:05.721Z,19.62
2023-05-08T09:13:59.127Z,19.73
2023-05-08T09:14:51.152Z,19.69
2023-05-08T09:15:42.568Z,19.78
2023-05-08T09:16:34.642Z,19.97
2023-05-08T09:17:26.395Z,20.05
2023-05-08T09:18:19.077Z,20.11
2023-05-08T09:19:16.574Z,20.22
2023-05-08T09:20:14.153Z,20.24
2023-05-08T09:21:07.053Z,20.39
2023-05-08T09:22:00.995Z,20.46
2023-05-08T09:22:54.511Z,20.56
2023-05-08T09:23:56.515Z,20.36
2023-05-08T09:24:59.053Z,20.09
2023-05-08T09:25:53.307Z,20.23
2023-05-08T09:26:47.116Z,20.27
2023-05-08T09:27:39.249Z,20.42
2023-05-08T09:28:31.006Z,20.41
2023-05-08T09:29:22.851Z,20.25
2023-05-08T09:30:14.433Z,20.07
2023-05-08T09:31:06.120Z,20.05
2023-05-08T09:31:57.562Z,20.08
2023-05-08T09:32:49.820Z,20.07
2023-05-08T09:33:45.832Z,20.08
2023-05-08T09:34:37.359Z,20.08
2023-05-08T09:35:39.824Z,19.88
2023-05-08T09:36:34.913Z,20.05
2023-05-08T09:37:28.617Z,20.05
2023-05-08T09:38:35.848Z,19.99
2023-05-08T09:39:30.397Z,19.79
2023-05-08T09:40:22.644Z,19.97
2023-05-08T09:41:16.532Z,19.93
2023-05-08T09:42:08.054Z,19.83
2023-05-08T09:43:13.928Z,19.88
2023-05-08T09:44:07.311Z,19.97
2023-05-08T09:44:58.733Z,19.99
2023-05-08T09:45:50.236Z,19.90
2023-05-08T09:46:42.036Z,19.80
2023-05-08T09:47:37.234Z,19.81
2023-05-08T09:48:38.487Z,20.00
2023-05-08T09:49:29.981Z,20.16
2023-05-08T09:50:29.041Z,20.26
2023-05-08T09:51:22.803Z,20.36
2023-05-08T09:52:22.010Z,20.41
2023-05-08T09:53:13.511Z,20.54
2023-05-08T09:54:17.996Z,20.68
2023-05-08T09:55:10.967Z,20.42
2023-05-08T09:56:02.526Z,20.34
2023-05-08T09:56:54.191Z,20.23
2023-05-08T09:57:59.404Z,20.36
2023-05-08T09:58:51.189Z,20.16
2023-05-08T09:59:42.735Z,20.15
2023-05-08T10:00:39.775Z,19.97
2023-05-08T10:01:37.696Z,20.04
2023-05-08T10:02:29.617Z,20.15
2023-05-08T10:03:23.678Z,20.02
2023-05-08T10:04:15.561Z,20.02
2023-05-08T10:05:27.936Z,20.21
2023-05-08T10:06:19.416Z,20.30
2023-05-08T10:07:10.872Z,20.40
2023-05-08T10:08:19.810Z,20.51
2023-05-08T10:09:14.128Z,20.57
2023-05-08T10:10:06.996Z,20.59
2023-05-08T10:11:15.197Z,20.54
2023-05-08T10:12:07.319Z,20.41
2023-05-08T10:12:59.349Z,20.56
2023-05-08T10:13:50.830Z,20.53
2023-05-08T10:14:46.905Z,20.47
2023-05-08T10:15:42.650Z,20.38
2023-05-08T10:16:43.913Z,20.18
2023-05-08T10:17:42.423Z,20.18
2023-05-08T10:18:36.747Z,20.17
2023-05-08T10:19:29.111Z,20.21
2023-05-08T10:20:21.815Z,20.30
2023-05-08T10:21:17.855Z,20.35
2023-05-08T10:22:13.745Z,20.33
2023-05-08T10:23:11.725Z,20.22
2023-05-08T10:24:10.816Z,20.15
2023-05-08T10:25:07.867Z,20.19
2023-05-08T10:26:08.780Z,20.25
2023-05-08T10:27:30.344Z,20.28
2023-05-08T10:28:34.349Z,20.26
2023-05-08T10:29:33.929Z,20.24
2023-05-08T10:30:26.886Z,20.24
2023-05-08T10:31:24.557Z,20.32
2023-05-08T10:32:20.583Z,20.33
2023-05-08T10:33:15.576Z,20.37
2023-05-08T10:34:16.925Z,20.28
2023-05-08T10:35:10.824Z,20.26
2023-05-08T10:36:02.641Z,20.14
2023-05-08T10:36:54.709Z,20.04
2023-05-08T10:37:49.247Z,19.78
2023-05-08T10:38:41.942Z,19.85
2023-05-08T10:39:34.288Z,19.80
2023-05-08T10:40:28.038Z,19.83
2023-05-08T10:41:20.389Z,19.90
2023-05-08T10:42:14.842Z,19.93
2023-05-08T10:43:09.906Z,19.87
2023-05-08T10:44:03.453Z,19.93
2023-05-08T10:44:56.180Z,19.98
2023-05-08T10:45:48.478Z,20.05
2023-05-08T10:47:01.086Z,19.96
2023-05-08T10:48:22.014Z,20.09
2023-05-08T10:49:41.354Z,20.25
2023-05-08T10:51:13.520Z,20.30
2023-05-08T10:52:18.570Z,20.50
2023-05-08T10:53:24.985Z,20.69
2023-05-08T10:54:47.864Z,20.78
2023-05-08T10:55:44.967Z,20.86
2023-05-08T10:56:38.799Z,20.88
2023-05-08T10:57:31.807Z,20.86
2023-05-08T10:58:23.271Z,20.96
2023-05-08T10:59:19.932Z,20.83
2023-05-08T11:00:12.363Z,20.62
2023-05-08T11:01:07.963Z,20.62
2023-05-08T11:02:08.128Z,20.58
2023-05-08T11:03:14.108Z,20.51
2023-05-08T11:04:22.947Z,20.51
2023-05-08T11:05:18.607Z,20.45
2023-05-08T11:06:12.638Z,20.48
2023-05-08T11:07:06.434Z,20.51
2023-05-08T11:08:01.159Z,20.41
2023-05-08T11:08:54.596Z,20.45
2023-05-08T11:09:49.081Z,20.19
2023-05-08T11:10:42.231Z,20.06
2023-05-08T11:11:39.263Z,20.10
2023-05-08T11:12:33.798Z,20.12
2023-05-08T11:13:50.147Z,20.07
2023-05-08T11:14:44.511Z,19.92
2023-05-08T11:15:50.749Z,19.80
2023-05-08T11:16:54.692Z,19.96
2023-05-08T11:17:54.378Z,19.96
2023-05-08T11:19:26.829Z,19.96
2023-05-08T11:20:24.318Z,19.82
2023-05-08T11:21:23.928Z,19.81
2023-05-08T11:22:25.824Z,19.84
2023-05-08T11:23:28.613Z,19.86
2023-05-08T11:24:34.382Z,19.91
2023-05-08T11:25:43.285Z,19.90
2023-05-08T11:26:40.984Z,19.88
2023-05-08T11:27:42.375Z,19.93
2023-05-08T11:28:39.729Z,19.81
2023-05-08T11:29:31.594Z,19.78
2023-05-08T11:30:23.468Z,19.67
2023-05-08T11:31:14.947Z,19.73
2023-05-08T11:32:06.612Z,19.71
2023-05-08T11:33:04.893Z,19.67
2023-05-08T11:33:56.648Z,19.75
2023-05-08T11:34:49.142Z,19.73
2023-05-08T11:35:50.769Z,19.71
2023-05-08T11:37:02.016Z,19.70
2023-05-08T11:38:16.476Z,19.75
2023-05-08T11:39:13.219Z,19.81
2023-05-08T11:40:49.223Z,19.59
2023-05-08T11:41:42.507Z,19.60
2023-05-08T11:42:34.753Z,19.51
2023-05-08T11:43:38.163Z,19.41
2023-05-08T11:44:30.707Z,19.23
2023-05-08T11:45:23.185Z,19.23
2023-05-08T11:46:18.069Z,19.32
2023-05-08T11:47:19.617Z,19.44
2023-05-08T11:48:16.520Z,19.30
2023-05-08T11:49:17.438Z,19.32
2023-05-08T11:50:13.638Z,19.38
2023-05-08T11:51:05.486Z,19.42
2023-05-08T11:51:59.040Z,19.25
2023-05-08T11:52:51.588Z,19.37
2023-05-08T11:53:44.176Z,19.42
2023-05-08T11:54:36.517Z,19.45
2023-05-08T11:55:28.230Z,19.52
2023-05-08T11:56:22.258Z,19.65
2023-05-08T11:57:17.235Z,19.46
2023-05-08T11:58:12.865Z,19.51
2023-05-08T11:59:06.196Z,19.46
2023-05-08T11:59:57.922Z,19.54